createdAt,value
2017-12-09T00:00:54.473Z,1.20
2017-12-09T00:03:22.759Z,1.20
2017-12-09T00:05:51.020Z,1.20
2017-12-09T00:08:18.786Z,1.20
2017-12-09T00:10:46.279Z,1.20
2017-12-09T00:13:14.415Z,1.30
2017-12-09T00:15:42.679Z,1.30
2017-12-09T00:18:10.956Z,1.30
2017-12-09T00:20:38.492Z,1.30
2017-12-09T00:23:06.419Z,1.30
2017-12-09T00:25:34.684Z,1.20
2017-12-09T00:28:02.191Z,1.20
2017-12-09T00:30:29.699Z,1.20
2017-12-09T00:32:57.526Z,1.20
2017-12-09T00:35:25.030Z,1.20
2017-12-09T00:37:52.523Z,1.20
2017-12-09T00:40:20.039Z,1.20
2017-12-09T00:42:47.529Z,1.20
2017-12-09T00:45:15.217Z,1.10
2017-12-09T00:47:42.731Z,1.30
2017-12-09T00:50:10.632Z,1.20
2017-12-09T00:52:38.187Z,1.40
2017-12-09T00:55:05.697Z,1.30
2017-12-09T00:57:33.443Z,1.40
2017-12-09T01:00:01.396Z,1.50
2017-12-09T01:02:28.975Z,1.40
2017-12-09T01:04:56.536Z,1.40
2017-12-09T01:07:24.164Z,1.40
2017-12-09T01:09:51.972Z,1.40
2017-12-09T01:12:20.975Z,1.40
2017-12-09T01:14:48.728Z,1.30
2017-12-09T01:17:28.269Z,1.30
2017-12-09T01:19:56.223Z,1.40
2017-12-09T01:22:23.720Z,1.50
2017-12-09T01:24:52.027Z,1.30
2017-12-09T01:27:19.535Z,1.30
2017-12-09T01:29:47.041Z,1.40
2017-12-09T01:32:14.736Z,1.40
2017-12-09T01:34:42.491Z,1.50
2017-12-09T01:37:09.992Z,1.60
2017-12-09T01:39:37.533Z,1.60
2017-12-09T01:42:05.183Z,1.50
2017-12-09T01:44:33.067Z,1.60
2017-12-09T01:47:00.571Z,1.60
2017-12-09T01:49:28.071Z,1.70
2017-12-09T01:51:56.531Z,1.70
2017-12-09T01:54:24.295Z,1.70
2017-12-09T01:56:52.367Z,1.80
2017-12-09T01:59:19.867Z,1.90
2017-12-09T02:01:48.257Z,1.80
2017-12-09T02:04:16.535Z,1.90
2017-12-09T02:06:44.535Z,2.00
2017-12-09T02:09:12.037Z,2.00
2017-12-09T02:11:39.937Z,1.90
2017-12-09T02:14:07.844Z,2.00
2017-12-09T02:16:35.843Z,2.00
2017-12-09T02:19:03.468Z,2.10
2017-12-09T02:21:30.966Z,2.10
2017-12-09T02:23:58.995Z,2.20
2017-12-09T02:26:27.064Z,2.00
2017-12-09T02:28:54.582Z,2.00
2017-12-09T02:31:22.456Z,2.20
2017-12-09T02:33:49.963Z,2.10
2017-12-09T02:36:19.044Z,2.10
2017-12-09T02:38:47.122Z,2.20
2017-12-09T02:41:15.183Z,2.20
2017-12-09T02:43:42.944Z,2.10
2017-12-09T02:46:10.443Z,2.10
2017-12-09T02:48:38.348Z,2.10
2017-12-09T02:51:05.845Z,2.10
2017-12-09T02:53:33.392Z,2.10
2017-12-09T02:56:01.285Z,2.10
2017-12-09T02:58:29.632Z,2.10
2017-12-09T03:00:57.135Z,2.10
2017-12-09T03:03:25.400Z,2.10
2017-12-09T03:05:52.902Z,2.10
2017-12-09T03:08:20.679Z,2.10
2017-12-09T03:10:48.655Z,2.10
2017-12-09T03:13:16.547Z,2.00
2017-12-09T03:15:44.057Z,2.00
2017-12-09T03:18:12.643Z,1.80
2017-12-09T03:20:40.249Z,1.80
2017-12-09T03:23:08.513Z,1.80
2017-12-09T03:25:36.155Z,1.80
2017-12-09T03:28:04.053Z,1.80
2017-12-09T03:30:32.609Z,1.80
2017-12-09T03:33:00.560Z,1.90
2017-12-09T03:35:28.140Z,1.90
2017-12-09T03:37:55.892Z,1.80
2017-12-09T03:40:23.393Z,1.70
2017-12-09T03:42:51.740Z,1.70
2017-12-09T03:45:19.247Z,1.70
2017-12-09T03:47:46.761Z,1.70
2017-12-09T03:50:14.404Z,1.90
2017-12-09T03:52:42.492Z,1.90
2017-12-09T03:55:09.993Z,1.80
2017-12-09T03:57:37.491Z,1.80
2017-12-09T04:00:05.759Z,1.80
2017-12-09T04:02:33.531Z,1.80
2017-12-09T04:05:01.432Z,1.80
2017-12-09T04:07:29.708Z,1.90
2017-12-09T04:09:57.208Z,1.90
2017-12-09T04:12:24.709Z,2.00
2017-12-09T04:14:52.967Z,1.90
2017-12-09T04:17:20.467Z,1.90
2017-12-09T04:19:47.967Z,1.90
2017-12-09T04:22:15.475Z,1.90
2017-12-09T04:24:43.092Z,1.80
2017-12-09T04:27:10.991Z,1.80
2017-12-09T04:29:39.270Z,1.80
2017-12-09T04:32:07.008Z,1.80
2017-12-09T04:34:35.194Z,1.90
2017-12-09T04:37:03.837Z,1.70
2017-12-09T04:39:32.140Z,1.70
2017-12-09T04:41:59.636Z,1.60
2017-12-09T04:44:27.131Z,1.60
2017-12-09T04:46:54.627Z,1.50
2017-12-09T04:49:22.139Z,1.70
2017-12-09T04:51:49.725Z,1.70
2017-12-09T04:54:17.491Z,2.10
2017-12-09T04:56:45.751Z,1.70
2017-12-09T04:59:13.640Z,1.70
2017-12-09T05:01:41.539Z,1.60
2017-12-09T05:04:10.076Z,1.60
2017-12-09T05:06:37.976Z,1.70
2017-12-09T05:09:05.603Z,1.70
2017-12-09T05:11:33.859Z,1.70
2017-12-09T05:14:01.490Z,1.70
2017-12-09T05:16:28.991Z,1.60
2017-12-09T05:18:56.663Z,1.70
2017-12-09T05:21:24.425Z,1.70
2017-12-09T05:23:52.188Z,1.60
2017-12-09T05:26:20.267Z,1.60
2017-12-09T05:28:48.024Z,1.60
2017-12-09T05:31:15.796Z,1.60
2017-12-09T05:33:43.295Z,1.60
2017-12-09T05:36:11.108Z,1.60
2017-12-09T05:38:38.595Z,1.60
2017-12-09T05:41:06.491Z,1.50
2017-12-09T05:43:34.555Z,1.50
2017-12-09T05:46:02.059Z,1.50
2017-12-09T05:48:30.436Z,1.40
2017-12-09T05:50:58.199Z,1.40
2017-12-09T05:53:26.275Z,1.40
2017-12-09T05:55:53.779Z,1.40
2017-12-09T05:58:22.055Z,1.40
2017-12-09T06:00:49.562Z,1.60
2017-12-09T06:03:17.463Z,1.60
2017-12-09T06:05:44.967Z,1.60
2017-12-09T06:08:12.467Z,1.50
2017-12-09T06:10:40.931Z,1.40
2017-12-09T06:13:08.823Z,1.40
2017-12-09T06:15:36.447Z,1.40
2017-12-09T06:18:04.376Z,1.50
2017-12-09T06:20:32.899Z,1.40
2017-12-09T06:23:00.713Z,1.40
2017-12-09T06:25:28.216Z,1.40
2017-12-09T06:27:55.725Z,1.40
2017-12-09T06:30:23.988Z,1.40
2017-12-09T06:32:52.027Z,1.30
2017-12-09T06:35:19.529Z,1.40
2017-12-09T06:37:47.792Z,1.50
2017-12-09T06:40:15.301Z,1.40
2017-12-09T06:42:42.797Z,1.60
2017-12-09T06:45:11.804Z,1.50
2017-12-09T06:47:39.527Z,1.60
2017-12-09T06:50:07.427Z,1.60
2017-12-09T06:52:34.926Z,1.50
2017-12-09T06:55:02.563Z,1.60
2017-12-09T06:57:30.275Z,1.60
2017-12-09T06:59:57.778Z,1.70
2017-12-09T07:02:25.268Z,1.70
2017-12-09T07:04:53.543Z,1.60
2017-12-09T07:07:21.332Z,1.60
2017-12-09T07:09:49.252Z,1.60
2017-12-09T07:12:16.743Z,1.70
2017-12-09T07:14:44.240Z,1.60
2017-12-09T07:17:11.760Z,1.70
2017-12-09T07:19:39.239Z,1.60
2017-12-09T07:22:06.830Z,1.70
2017-12-09T07:24:35.130Z,1.70
2017-12-09T07:27:02.723Z,1.70
2017-12-09T07:29:30.275Z,1.60
2017-12-09T07:31:58.044Z,1.70
2017-12-09T07:34:25.807Z,1.70
2017-12-09T07:36:53.322Z,1.70
2017-12-09T07:39:20.803Z,1.60
2017-12-09T07:41:48.511Z,1.60
2017-12-09T07:44:16.020Z,1.70
2017-12-09T07:46:43.530Z,1.70
2017-12-09T07:49:11.039Z,1.70
2017-12-09T07:51:38.543Z,1.80
2017-12-09T07:54:06.298Z,1.80
2017-12-09T07:56:34.198Z,1.80
2017-12-09T07:59:01.693Z,1.80
2017-12-09T08:01:29.199Z,1.80
2017-12-09T08:03:57.476Z,1.90
2017-12-09T08:06:24.971Z,1.80
2017-12-09T08:08:52.964Z,1.90
2017-12-09T08:11:20.482Z,1.90
2017-12-09T08:13:47.978Z,1.90
2017-12-09T08:16:16.640Z,1.90
2017-12-09T08:18:44.324Z,1.90
2017-12-09T08:21:12.215Z,1.90
2017-12-09T08:23:39.725Z,2.00
2017-12-09T08:26:07.221Z,2.00
2017-12-09T08:28:34.720Z,2.00
2017-12-09T08:31:02.216Z,1.90
2017-12-09T08:33:29.723Z,1.90
2017-12-09T08:35:57.304Z,2.00
2017-12-09T08:38:25.225Z,2.00
2017-12-09T08:40:52.944Z,2.10
2017-12-09T08:43:20.580Z,2.10
2017-12-09T08:45:48.472Z,2.20
2017-12-09T08:48:16.374Z,2.20
2017-12-09T08:50:43.899Z,2.20
2017-12-09T08:53:11.415Z,2.20
2017-12-09T08:55:38.927Z,2.10
2017-12-09T08:58:06.837Z,2.10
2017-12-09T09:00:34.478Z,2.00
2017-12-09T09:03:02.012Z,2.10
2017-12-09T09:05:30.916Z,2.30
2017-12-09T09:07:58.435Z,2.30
2017-12-09T09:10:26.107Z,2.40
2017-12-09T09:12:53.604Z,2.30
2017-12-09T09:15:22.624Z,2.30
2017-12-09T09:17:50.379Z,2.30
2017-12-09T09:20:17.886Z,2.30
2017-12-09T09:22:45.375Z,2.40
2017-12-09T09:25:12.898Z,2.40
2017-12-09T09:27:40.383Z,2.40
2017-12-09T09:30:07.883Z,2.60
2017-12-09T09:32:35.379Z,2.50
2017-12-09T09:35:02.893Z,2.50
2017-12-09T09:37:30.612Z,2.60
2017-12-09T09:39:58.120Z,3.10
2017-12-09T09:42:25.804Z,4.00
2017-12-09T09:44:53.328Z,3.40
2017-12-09T09:47:21.232Z,2.80
2017-12-09T09:49:48.812Z,2.70
2017-12-09T09:52:16.306Z,2.60
2017-12-09T09:54:43.806Z,2.60
2017-12-09T09:57:12.103Z,3.00
2017-12-09T09:59:39.874Z,2.50
2017-12-09T10:02:07.377Z,2.50
2017-12-09T10:04:35.087Z,2.50
2017-12-09T10:07:02.994Z,2.50
2017-12-09T10:09:31.261Z,2.60
2017-12-09T10:11:58.771Z,2.70
2017-12-09T10:14:26.445Z,2.70
2017-12-09T10:16:54.217Z,2.80
2017-12-09T10:19:22.594Z,2.80
2017-12-09T10:21:50.097Z,2.80
2017-12-09T10:24:17.808Z,2.80
2017-12-09T10:26:45.571Z,2.90
2017-12-09T10:29:13.347Z,2.90
2017-12-09T10:31:40.848Z,2.80
2017-12-09T10:34:08.340Z,2.90
2017-12-09T10:36:35.855Z,3.00
2017-12-09T10:39:04.124Z,3.00
2017-12-09T10:41:31.847Z,3.10
2017-12-09T10:43:59.364Z,3.10
2017-12-09T10:46:26.864Z,3.10
2017-12-09T10:48:54.767Z,3.20
2017-12-09T10:51:22.266Z,3.30
2017-12-09T10:53:49.766Z,3.30
2017-12-09T10:56:19.043Z,3.30
2017-12-09T10:58:46.551Z,3.30
2017-12-09T11:01:14.960Z,3.30
2017-12-09T11:03:42.511Z,3.10
2017-12-09T11:06:10.407Z,3.20
2017-12-09T11:08:38.566Z,3.20
2017-12-09T11:11:06.477Z,3.20
2017-12-09T11:13:33.984Z,3.20
2017-12-09T11:16:02.268Z,3.30
2017-12-09T11:18:29.857Z,3.40
2017-12-09T11:20:57.373Z,3.30
2017-12-09T11:23:24.883Z,3.30
2017-12-09T11:25:52.803Z,3.30
2017-12-09T11:28:21.204Z,3.40
2017-12-09T11:30:48.740Z,3.40
2017-12-09T11:33:16.617Z,3.40
2017-12-09T11:35:44.129Z,3.40
2017-12-09T11:38:11.635Z,3.40
2017-12-09T11:40:39.403Z,3.50
2017-12-09T11:43:07.292Z,3.40
2017-12-09T11:45:34.925Z,3.40
2017-12-09T11:48:02.840Z,3.40
2017-12-09T11:50:31.375Z,3.40
2017-12-09T11:52:59.273Z,3.40
2017-12-09T11:55:26.905Z,3.30
2017-12-09T11:57:54.804Z,3.40
2017-12-09T12:00:22.310Z,3.40
2017-12-09T12:02:49.887Z,3.40
2017-12-09T12:05:17.613Z,3.40
2017-12-09T12:07:45.126Z,3.40
2017-12-09T12:10:12.875Z,3.40
2017-12-09T12:12:40.384Z,3.40
2017-12-09T12:15:07.894Z,3.40
2017-12-09T12:17:35.384Z,3.40
2017-12-09T12:20:03.651Z,3.40
2017-12-09T12:22:31.236Z,3.40
2017-12-09T12:25:00.992Z,3.40
2017-12-09T12:27:28.499Z,3.40
2017-12-09T12:29:56.208Z,3.40
2017-12-09T12:32:24.285Z,3.40
2017-12-09T12:34:51.868Z,3.30
2017-12-09T12:37:19.379Z,3.40
2017-12-09T12:39:47.803Z,3.40
2017-12-09T12:42:15.291Z,3.40
2017-12-09T12:44:42.792Z,3.40
2017-12-09T12:47:11.264Z,3.50
2017-12-09T12:49:38.936Z,3.40
2017-12-09T12:52:06.889Z,3.50
2017-12-09T12:54:34.459Z,3.60
2017-12-09T12:57:02.379Z,3.50
2017-12-09T12:59:30.643Z,3.50
2017-12-09T13:01:58.371Z,3.50
2017-12-09T13:04:25.877Z,3.50
2017-12-09T13:06:53.371Z,3.40
2017-12-09T13:09:22.267Z,3.40
2017-12-09T13:11:49.767Z,3.30
2017-12-09T13:14:17.491Z,3.30
2017-12-09T13:16:44.987Z,3.20
2017-12-09T13:19:14.072Z,3.20
2017-12-09T13:21:41.698Z,3.10
2017-12-09T13:24:09.214Z,3.00
2017-12-09T13:26:36.919Z,2.90
2017-12-09T13:29:04.423Z,2.90
2017-12-09T13:31:31.930Z,2.80
2017-12-09T13:33:59.600Z,2.90
2017-12-09T13:36:27.097Z,2.70
2017-12-09T13:38:54.816Z,2.60
2017-12-09T13:41:22.763Z,2.60
2017-12-09T13:43:50.620Z,2.60
2017-12-09T13:46:18.415Z,2.70
2017-12-09T13:48:45.927Z,2.70
2017-12-09T13:51:13.451Z,2.80
2017-12-09T13:53:40.940Z,2.80
2017-12-09T13:56:09.223Z,2.80
2017-12-09T13:58:37.239Z,2.90
2017-12-09T14:01:05.007Z,2.90
2017-12-09T14:03:32.607Z,2.90
2017-12-09T14:06:00.881Z,2.90
2017-12-09T14:08:28.372Z,3.00
2017-12-09T14:10:55.880Z,3.00
2017-12-09T14:13:23.767Z,3.10
2017-12-09T14:15:51.271Z,3.20
2017-12-09T14:18:18.772Z,3.20
2017-12-09T14:20:46.490Z,3.20
2017-12-09T14:23:14.267Z,3.30
2017-12-09T14:25:42.024Z,3.30
2017-12-09T14:28:09.509Z,3.30
2017-12-09T14:30:37.521Z,3.30
2017-12-09T14:33:05.025Z,3.30
2017-12-09T14:35:32.537Z,3.30
2017-12-09T14:38:00.188Z,3.40
2017-12-09T14:40:27.692Z,3.30
2017-12-09T14:42:55.186Z,3.40
2017-12-09T14:45:22.920Z,3.30
2017-12-09T14:47:51.932Z,3.20
2017-12-09T14:50:19.440Z,3.20
2017-12-09T14:52:48.076Z,3.10
2017-12-09T14:55:15.602Z,2.90
2017-12-09T14:57:43.264Z,2.60
2017-12-09T15:00:11.024Z,2.40
2017-12-09T15:02:38.516Z,2.10
2017-12-09T15:05:06.205Z,1.90
2017-12-09T15:07:34.201Z,1.90
2017-12-09T15:10:01.720Z,1.90
2017-12-09T15:12:29.228Z,1.90
2017-12-09T15:14:56.721Z,2.00
2017-12-09T15:17:24.415Z,2.00
2017-12-09T15:19:52.671Z,2.10
2017-12-09T15:22:20.938Z,2.30
2017-12-09T15:24:48.654Z,2.20
2017-12-09T15:27:16.150Z,2.30
2017-12-09T15:29:43.876Z,2.20
2017-12-09T15:32:11.383Z,2.20
2017-12-09T15:34:39.095Z,2.20
2017-12-09T15:37:06.603Z,2.30
2017-12-09T15:39:34.304Z,2.30
2017-12-09T15:42:01.809Z,2.30
2017-12-09T15:44:29.303Z,2.20
2017-12-09T15:46:57.643Z,2.20
2017-12-09T15:49:26.044Z,2.20
2017-12-09T15:51:53.664Z,1.90
2017-12-09T15:54:21.207Z,1.80
2017-12-09T15:56:48.965Z,1.70
2017-12-09T15:59:16.467Z,1.70
2017-12-09T16:01:44.561Z,1.70
2017-12-09T16:04:13.488Z,1.80
2017-12-09T16:06:41.251Z,1.90
2017-12-09T16:09:09.011Z,2.00
2017-12-09T16:11:36.776Z,2.00
2017-12-09T16:14:04.349Z,2.10
2017-12-09T16:16:31.847Z,2.10
2017-12-09T16:19:00.112Z,2.10
2017-12-09T16:21:28.172Z,2.10
2017-12-09T16:23:55.679Z,2.10
2017-12-09T16:26:23.171Z,2.20
2017-12-09T16:28:50.818Z,2.10
2017-12-09T16:31:18.584Z,2.10
2017-12-09T16:33:46.342Z,2.10
2017-12-09T16:36:14.231Z,2.20
2017-12-09T16:38:42.127Z,2.20
2017-12-09T16:41:09.637Z,2.20
2017-12-09T16:43:37.244Z,2.30
2017-12-09T16:46:05.774Z,2.30
2017-12-09T16:48:33.268Z,2.30
2017-12-09T16:51:00.756Z,2.30
2017-12-09T16:53:28.255Z,2.40
2017-12-09T16:55:55.755Z,2.40
2017-12-09T16:58:24.024Z,2.50
2017-12-09T17:00:51.525Z,2.50
2017-12-09T17:03:20.188Z,2.40
2017-12-09T17:05:47.688Z,2.50
2017-12-09T17:08:15.648Z,2.40
2017-12-09T17:10:43.547Z,2.40
2017-12-09T17:13:11.436Z,2.40
2017-12-09T17:15:38.944Z,2.40
2017-12-09T17:18:06.691Z,2.30
2017-12-09T17:20:34.199Z,2.20
2017-12-09T17:23:01.928Z,2.20
2017-12-09T17:25:29.884Z,2.20
2017-12-09T17:27:57.380Z,2.20
2017-12-09T17:30:24.912Z,2.20
2017-12-09T17:32:52.671Z,2.20
2017-12-09T17:35:20.436Z,2.20
2017-12-09T17:37:48.191Z,2.20
2017-12-09T17:40:15.964Z,2.10
2017-12-09T17:42:43.728Z,2.10
2017-12-09T17:45:11.223Z,2.10
2017-12-09T17:47:38.943Z,2.20
2017-12-09T17:50:06.711Z,2.10
2017-12-09T17:52:34.472Z,2.10
2017-12-09T17:55:02.247Z,2.10
2017-12-09T17:57:29.744Z,2.10
2017-12-09T17:59:57.252Z,2.00
2017-12-09T18:02:24.875Z,2.00
2017-12-09T18:04:52.406Z,2.00
2017-12-09T18:07:20.298Z,1.90
2017-12-09T18:09:47.804Z,1.90
2017-12-09T18:12:15.351Z,1.90
2017-12-09T18:14:43.116Z,1.90
2017-12-09T18:17:10.878Z,1.90
2017-12-09T18:19:38.391Z,1.90
2017-12-09T18:22:05.884Z,2.00
2017-12-09T18:24:33.384Z,1.90
2017-12-09T18:27:01.017Z,1.90
2017-12-09T18:29:28.913Z,1.90
2017-12-09T18:31:56.640Z,2.00
2017-12-09T18:34:25.007Z,2.00
2017-12-09T18:36:52.508Z,2.10
2017-12-09T18:39:20.391Z,2.10
2017-12-09T18:41:48.208Z,2.10
2017-12-09T18:44:15.700Z,2.10
2017-12-09T18:46:43.200Z,2.10
2017-12-09T18:49:10.687Z,2.10
2017-12-09T18:51:38.192Z,2.10
2017-12-09T18:54:06.447Z,2.20
2017-12-09T18:56:33.957Z,2.00
2017-12-09T18:59:01.548Z,2.00
2017-12-09T19:01:29.565Z,2.10
2017-12-09T19:03:57.056Z,2.10
2017-12-09T19:06:25.340Z,2.10
2017-12-09T19:08:52.834Z,2.10
2017-12-09T19:11:21.367Z,2.10
2017-12-09T19:13:49.145Z,2.20
2017-12-09T19:16:17.422Z,2.10
2017-12-09T19:18:44.940Z,2.00
2017-12-09T19:21:12.424Z,2.10
2017-12-09T19:23:40.192Z,2.20
2017-12-09T19:26:08.091Z,2.10
2017-12-09T19:28:36.345Z,2.20
2017-12-09T19:31:03.885Z,2.30
2017-12-09T19:33:31.379Z,2.10
2017-12-09T19:35:59.294Z,2.10
2017-12-09T19:38:26.784Z,2.10
2017-12-09T19:40:54.293Z,2.20
2017-12-09T19:43:21.808Z,2.20
2017-12-09T19:45:49.295Z,2.20
2017-12-09T19:48:16.796Z,2.10
2017-12-09T19:50:44.360Z,2.10
2017-12-09T19:53:12.631Z,2.10
2017-12-09T19:55:40.132Z,2.10
2017-12-09T19:58:07.632Z,2.10
2017-12-09T20:00:35.124Z,2.10
2017-12-09T20:03:02.649Z,2.20
2017-12-09T20:05:30.855Z,2.10
2017-12-09T20:07:59.012Z,2.10
2017-12-09T20:10:26.781Z,2.10
2017-12-09T20:12:54.667Z,2.10
2017-12-09T20:15:22.308Z,2.00
2017-12-09T20:17:50.068Z,2.00
2017-12-09T20:20:18.136Z,2.10
2017-12-09T20:22:45.641Z,2.10
2017-12-09T20:25:14.219Z,2.00
2017-12-09T20:27:41.735Z,2.00
2017-12-09T20:30:09.499Z,2.00
2017-12-09T20:32:37.260Z,2.00
2017-12-09T20:35:04.756Z,2.10
2017-12-09T20:37:32.256Z,2.10
2017-12-09T20:39:59.747Z,2.00
2017-12-09T20:42:27.703Z,2.10
2017-12-09T20:44:55.468Z,2.10
2017-12-09T20:47:23.376Z,2.10
2017-12-09T20:49:51.639Z,2.00
2017-12-09T20:52:19.940Z,2.00
2017-12-09T20:54:48.363Z,2.00
2017-12-09T20:57:15.864Z,2.00
2017-12-09T20:59:43.364Z,2.00
2017-12-09T21:02:11.651Z,1.90
2017-12-09T21:04:39.156Z,2.00
2017-12-09T21:07:06.657Z,1.90
2017-12-09T21:09:34.944Z,2.00
2017-12-09T21:12:02.828Z,2.00
2017-12-09T21:14:30.351Z,2.00
2017-12-09T21:16:57.835Z,2.00
2017-12-09T21:19:25.358Z,2.10
2017-12-09T21:21:52.940Z,2.00
2017-12-09T21:24:20.455Z,2.10
2017-12-09T21:26:48.823Z,2.10
2017-12-09T21:29:17.090Z,2.20
2017-12-09T21:31:44.583Z,2.20
2017-12-09T21:34:12.072Z,2.10
2017-12-09T21:36:39.570Z,2.10
2017-12-09T21:39:08.119Z,2.20
2017-12-09T21:41:36.483Z,2.20
2017-12-09T21:44:04.264Z,2.20
2017-12-09T21:46:32.015Z,2.10
2017-12-09T21:48:59.515Z,2.20
2017-12-09T21:51:27.233Z,2.20
2017-12-09T21:53:55.308Z,2.20
2017-12-09T21:56:23.100Z,2.20
2017-12-09T21:58:50.587Z,2.20
2017-12-09T22:01:18.093Z,2.20
2017-12-09T22:03:45.579Z,2.20
2017-12-09T22:06:13.852Z,2.20
2017-12-09T22:08:41.347Z,2.10
2017-12-09T22:11:09.238Z,2.20
2017-12-09T22:13:37.503Z,2.70
2017-12-09T22:16:05.004Z,2.20
2017-12-09T22:18:32.515Z,2.20
2017-12-09T22:21:00.008Z,2.20
2017-12-09T22:23:27.728Z,2.20
2017-12-09T22:25:55.980Z,2.20
2017-12-09T22:28:23.648Z,2.20
2017-12-09T22:30:51.147Z,2.30
2017-12-09T22:33:18.646Z,2.30
2017-12-09T22:35:46.161Z,2.30
2017-12-09T22:38:13.824Z,2.20
2017-12-09T22:40:41.336Z,2.20
2017-12-09T22:43:08.828Z,2.20
2017-12-09T22:45:36.508Z,2.20
2017-12-09T22:48:04.260Z,2.30
2017-12-09T22:50:32.335Z,2.30
2017-12-09T22:53:00.096Z,2.30
2017-12-09T22:55:27.600Z,2.40
2017-12-09T22:57:55.316Z,2.30
2017-12-09T23:00:23.791Z,2.40
2017-12-09T23:02:51.458Z,2.30
2017-12-09T23:05:19.527Z,2.30
2017-12-09T23:07:47.027Z,2.30
2017-12-09T23:10:15.092Z,2.30
2017-12-09T23:12:42.604Z,2.30
2017-12-09T23:15:10.109Z,2.40
2017-12-09T23:17:38.383Z,2.50
2017-12-09T23:20:06.108Z,2.30
2017-12-09T23:22:33.624Z,2.30
2017-12-09T23:25:01.334Z,2.40
2017-12-09T23:27:28.831Z,2.40
2017-12-09T23:29:57.164Z,2.50
2017-12-09T23:32:24.802Z,2.40
2017-12-09T23:34:52.279Z,2.40
2017-12-09T23:37:19.780Z,2.40
2017-12-09T23:39:48.046Z,2.40
2017-12-09T23:42:15.560Z,2.40
2017-12-09T23:44:43.131Z,2.40
2017-12-09T23:47:10.896Z,2.30
2017-12-09T23:49:38.655Z,2.20
2017-12-09T23:52:06.427Z,2.30
2017-12-09T23:54:34.183Z,2.30
2017-12-09T23:57:01.683Z,2.30
2017-12-09T23:59:29.187Z,2.30
